Time;durP1;ratioP1;P1;durP2;ratioP2;P2;SDS_P1;SDS_P2;PMS_P1;PMS_P2;Temp;Humidity;BMP_temperature;BMP_pressure;BME280_temperature;BME280_humidity;BME280_pressure;Samples;Min_cycle;Max_cycle;Signal;HPM_P1;HPM_P2
2023/01/27 00:00:19;;;;;;;14.85;4.75;;;4.80;99.90;;;;;;4858505;29;20461;-71
2023/01/27 00:02:47;;;;;;;6.20;4.30;;;4.80;99.90;;;;;;4881624;29;20190;-71
2023/01/27 00:05:15;;;;;;;6.00;3.83;;;4.80;99.90;;;;;;4859755;29;20255;-71
2023/01/27 00:07:45;;;;;;;8.60;4.13;;;4.80;99.90;;;;;;4862814;29;20791;-71
2023/01/27 00:10:14;;;;;;;5.28;3.75;;;4.80;99.90;;;;;;4891865;29;20207;-71
2023/01/27 00:15:25;;;;;;;6.57;3.88;;;4.80;99.90;;;;;;4859159;29;20199;-71
2023/01/27 00:17:53;;;;;;;5.22;3.13;;;4.80;99.90;;;;;;4876923;29;20190;-71
2023/01/27 00:25:59;;;;;;;9.18;4.30;;;4.80;99.90;;;;;;4896458;29;20700;-71
2023/01/27 00:28:30;;;;;;;7.00;3.30;;;4.80;99.90;;;;;;4894982;29;20263;-71
2023/01/27 00:30:57;;;;;;;3.42;3.13;;;4.80;99.90;;;;;;4864180;29;20287;-71
2023/01/27 00:33:30;;;;;;;6.78;4.28;;;4.80;99.90;;;;;;4880413;29;20205;-71
2023/01/27 00:36:00;;;;;;;4.80;2.67;;;4.80;99.90;;;;;;4861866;29;20208;-71
2023/01/27 00:38:28;;;;;;;3.85;2.97;;;4.80;99.90;;;;;;4846819;29;20609;-71
2023/01/27 00:44:04;;;;;;;6.13;3.30;;;4.80;99.90;;;;;;4846966;29;20860;-71
2023/01/27 00:46:35;;;;;;;3.50;2.90;;;4.80;99.90;;;;;;4826967;29;20256;-71
2023/01/27 00:49:01;;;;;;;6.43;3.60;;;4.80;99.90;;;;;;4839707;29;20249;-71
2023/01/27 00:51:27;;;;;;;5.43;3.53;;;4.80;99.90;;;;;;4860236;29;20433;-71
2023/01/27 00:53:53;;;;;;;5.40;3.60;;;4.80;99.90;;;;;;4844980;29;20225;-71
2023/01/27 00:56:19;;;;;;;7.97;3.72;;;4.80;99.90;;;;;;4843067;29;20471;-71
2023/01/27 00:58:45;;;;;;;5.20;3.50;;;4.80;99.90;;;;;;4845044;29;20179;-71
2023/01/27 01:01:15;;;;;;;7.10;3.85;;;4.80;99.90;;;;;;4853006;29;20838;-71
2023/01/27 01:03:44;;;;;;;6.75;3.30;;;4.80;99.90;;;;;;4823483;29;20191;-71
2023/01/27 01:06:17;;;;;;;5.40;3.70;;;4.80;99.90;;;;;;4838316;29;20206;-71
2023/01/27 01:08:45;;;;;;;10.07;4.28;;;4.80;99.90;;;;;;4844705;29;20227;-71
2023/01/27 01:11:14;;;;;;;6.20;3.88;;;4.80;99.90;;;;;;4842556;29;20197;-71
2023/01/27 01:13:42;;;;;;;7.22;4.50;;;4.80;99.90;;;;;;4833444;29;20252;-71
2023/01/27 01:16:16;;;;;;;7.70;4.20;;;4.80;99.90;;;;;;4876295;29;20203;-71
2023/01/27 01:18:44;;;;;;;5.00;3.80;;;4.80;99.90;;;;;;4861086;29;20203;-71
2023/01/27 01:21:14;;;;;;;5.40;4.15;;;4.80;99.90;;;;;;4873912;29;20194;-71
2023/01/27 01:23:44;;;;;;;6.75;4.30;;;4.80;99.90;;;;;;4863967;29;20564;-71
2023/01/27 01:26:14;;;;;;;9.27;4.35;;;4.80;99.90;;;;;;4851537;29;20547;-71
2023/01/27 01:28:40;;;;;;;11.60;4.65;;;4.90;99.90;;;;;;4859320;29;20194;-71
2023/01/27 01:31:12;;;;;;;10.35;5.20;;;4.90;99.90;;;;;;4850490;29;20215;-71
2023/01/27 01:33:38;;;;;;;6.47;4.82;;;4.90;99.90;;;;;;4879117;29;20305;-71
2023/01/27 01:36:10;;;;;;;9.52;4.97;;;4.90;99.90;;;;;;4861834;29;20229;-71
2023/01/27 01:38:36;;;;;;;13.93;4.72;;;4.90;99.90;;;;;;4862829;29;20198;-71
2023/01/27 01:41:06;;;;;;;6.10;5.18;;;4.90;99.90;;;;;;4881265;29;20179;-71
2023/01/27 01:43:33;;;;;;;7.43;4.45;;;4.90;99.90;;;;;;4863983;29;20209;-71
2023/01/27 01:46:00;;;;;;;6.65;4.60;;;4.90;99.90;;;;;;4853710;29;20218;-71
2023/01/27 01:48:41;;;;;;;5.63;4.68;;;4.90;99.90;;;;;;4877548;29;20198;-71
2023/01/27 01:51:40;;;;;;;5.90;4.40;;;4.90;99.90;;;;;;4879246;29;20170;-71
2023/01/27 01:54:26;;;;;;;6.97;4.70;;;4.90;99.90;;;;;;4861161;29;20242;-71
2023/01/27 01:57:09;;;;;;;7.13;4.63;;;4.90;99.90;;;;;;4846396;29;20242;-71
2023/01/27 01:59:45;;;;;;;16.33;6.13;;;4.90;99.90;;;;;;4845285;29;20194;-71
2023/01/27 02:02:16;;;;;;;9.13;4.95;;;4.90;99.90;;;;;;4872710;29;20238;-71
2023/01/27 02:05:06;;;;;;;10.57;4.63;;;4.90;99.90;;;;;;4875979;29;20263;-71
2023/01/27 02:07:45;;;;;;;13.60;6.22;;;4.90;99.90;;;;;;4852076;29;20798;-71
2023/01/27 02:10:14;;;;;;;9.35;5.75;;;4.90;99.90;;;;;;4878013;29;20302;-71
2023/01/27 02:12:40;;;;;;;8.10;5.20;;;4.90;99.90;;;;;;4878010;29;20242;-71
2023/01/27 02:15:10;;;;;;;8.90;5.30;;;4.90;99.90;;;;;;4878823;29;20214;-71
2023/01/27 02:17:37;;;;;;;12.75;5.72;;;4.90;99.90;;;;;;4882465;29;20949;-71
2023/01/27 02:20:26;;;;;;;8.10;5.60;;;4.90;99.90;;;;;;4879625;29;20162;-71
2023/01/27 02:22:58;;;;;;;10.38;5.78;;;4.90;99.90;;;;;;4878413;29;20194;-71
2023/01/27 02:25:34;;;;;;;13.35;6.00;;;4.90;99.90;;;;;;4878105;29;20231;-71
2023/01/27 02:28:06;;;;;;;12.15;5.70;;;4.90;99.90;;;;;;4859492;29;20176;-71
2023/01/27 02:30:32;;;;;;;10.40;6.90;;;4.90;99.90;;;;;;4861215;29;20187;-71
2023/01/27 02:32:59;;;;;;;8.30;6.28;;;4.90;99.90;;;;;;4864483;29;20623;-71
2023/01/27 02:35:37;;;;;;;10.85;6.38;;;4.90;99.90;;;;;;4868181;29;20707;-71
2023/01/27 02:38:06;;;;;;;9.55;6.43;;;4.90;99.90;;;;;;4878331;29;20272;-71
2023/01/27 02:40:33;;;;;;;9.60;6.32;;;4.90;99.90;;;;;;4879215;29;20724;-71
2023/01/27 02:43:03;;;;;;;12.30;6.60;;;4.90;99.90;;;;;;4862101;29;20290;-71
2023/01/27 02:45:29;;;;;;;10.30;7.05;;;4.90;99.90;;;;;;4879287;29;20198;-71
2023/01/27 02:47:57;;;;;;;12.88;6.90;;;4.90;99.90;;;;;;4871869;29;20179;-71
2023/01/27 02:50:23;;;;;;;13.55;6.57;;;4.90;99.90;;;;;;4859555;29;20187;-71
2023/01/27 02:52:49;;;;;;;13.00;6.60;;;4.90;99.90;;;;;;4861775;29;20277;-71
2023/01/27 02:55:16;;;;;;;13.10;6.93;;;4.90;99.90;;;;;;4870535;29;20206;-71
2023/01/27 02:57:45;;;;;;;12.15;6.90;;;4.90;99.90;;;;;;4872966;29;20733;-71
2023/01/27 03:00:30;;;;;;;15.05;7.72;;;4.90;99.90;;;;;;4861989;29;20190;-71
2023/01/27 03:02:57;;;;;;;14.25;8.50;;;4.90;99.90;;;;;;4871201;29;20191;-71
2023/01/27 03:05:28;;;;;;;14.15;7.20;;;4.90;99.90;;;;;;4860552;29;20191;-71
2023/01/27 03:07:56;;;;;;;15.00;7.95;;;4.90;99.90;;;;;;4869029;29;20214;-71
2023/01/27 03:10:24;;;;;;;12.35;7.43;;;4.90;99.90;;;;;;4877339;29;20179;-71
2023/01/27 03:12:50;;;;;;;14.98;8.00;;;4.90;99.90;;;;;;4890417;29;20254;-71
2023/01/27 03:18:15;;;;;;;11.25;7.75;;;4.90;99.90;;;;;;4877256;29;20442;-71
2023/01/27 03:20:44;;;;;;;10.10;6.47;;;4.90;99.90;;;;;;4877001;29;20259;-71
2023/01/27 03:23:11;;;;;;;12.23;7.57;;;4.90;99.90;;;;;;4877393;29;20178;-71
2023/01/27 03:25:46;;;;;;;10.35;6.85;;;4.90;99.90;;;;;;4868016;29;20737;-71
2023/01/27 03:28:13;;;;;;;9.80;7.30;;;4.90;99.90;;;;;;4843788;29;20214;-71
2023/01/27 03:31:06;;;;;;;10.32;6.35;;;4.90;99.90;;;;;;4869166;29;20195;-71
2023/01/27 03:33:44;;;;;;;10.48;6.60;;;4.90;99.90;;;;;;4873621;29;20287;-71
2023/01/27 03:47:27;;;;;;;9.93;6.53;;;4.80;99.90;;;;;;4858692;29;20195;-71
2023/01/27 03:49:56;;;;;;;7.63;5.90;;;4.90;99.90;;;;;;4876684;29;20258;-71
2023/01/27 03:52:22;;;;;;;13.75;7.40;;;4.90;99.90;;;;;;4876266;29;20277;-71
2023/01/27 03:54:50;;;;;;;10.73;5.68;;;4.90;99.90;;;;;;4868511;29;20727;-71
2023/01/27 03:57:16;;;;;;;9.10;5.40;;;4.90;99.90;;;;;;4863223;29;20176;-71
2023/01/27 03:59:42;;;;;;;10.23;5.80;;;4.90;99.90;;;;;;4847215;29;20515;-71
2023/01/27 04:07:37;;;;;;;10.23;5.80;;;4.80;99.90;;;;;;4863516;29;20186;-70
2023/01/27 04:10:05;;;;;;;10.77;6.30;;;4.80;99.90;;;;;;4863588;29;20685;-71
2023/01/27 04:12:32;;;;;;;9.27;6.45;;;4.80;99.90;;;;;;4882962;29;20502;-70
2023/01/27 04:15:03;;;;;;;12.05;6.70;;;4.80;99.90;;;;;;4871503;29;20225;-70
2023/01/27 04:17:37;;;;;;;10.25;6.43;;;4.80;99.90;;;;;;4870640;29;20174;-70
2023/01/27 04:20:06;;;;;;;9.57;6.00;;;4.80;99.90;;;;;;4880747;29;20281;-70
2023/01/27 04:22:35;;;;;;;12.48;6.43;;;4.90;99.90;;;;;;4878978;29;20277;-70
2023/01/27 04:25:04;;;;;;;9.55;6.80;;;4.90;99.90;;;;;;4880489;29;20551;-70
2023/01/27 04:27:32;;;;;;;10.20;6.43;;;4.80;99.90;;;;;;4880217;29;20258;-70
2023/01/27 04:30:01;;;;;;;9.82;5.85;;;4.90;99.90;;;;;;4880040;29;20193;-70
2023/01/27 04:32:29;;;;;;;12.77;7.00;;;4.90;99.90;;;;;;4880464;29;20613;-70
2023/01/27 04:35:00;;;;;;;11.88;6.60;;;4.90;99.90;;;;;;4880001;29;20486;-71
2023/01/27 04:37:26;;;;;;;11.30;6.22;;;4.80;99.90;;;;;;4876794;29;20185;-70
2023/01/27 04:39:52;;;;;;;14.43;7.67;;;4.80;99.90;;;;;;4861788;29;20172;-71
2023/01/27 04:42:18;;;;;;;13.23;7.22;;;4.80;99.90;;;;;;4868571;29;20431;-71
2023/01/27 04:44:44;;;;;;;10.80;6.20;;;4.80;99.90;;;;;;4879860;29;20229;-70
2023/01/27 04:47:10;;;;;;;10.07;7.20;;;4.80;99.90;;;;;;4864495;29;20447;-70
2023/01/27 04:49:36;;;;;;;13.13;6.63;;;4.80;99.90;;;;;;4876353;29;20198;-70
2023/01/27 04:52:02;;;;;;;7.65;5.80;;;4.90;99.90;;;;;;4846289;29;20451;-70
2023/01/27 04:54:28;;;;;;;11.40;7.35;;;4.80;99.90;;;;;;4873525;29;20217;-70
2023/01/27 04:57:04;;;;;;;10.10;6.47;;;4.90;99.90;;;;;;4865295;29;20197;-71
2023/01/27 04:59:31;;;;;;;11.18;6.57;;;4.90;99.90;;;;;;4872686;29;20961;-70
2023/01/27 05:01:59;;;;;;;10.73;6.20;;;4.80;99.90;;;;;;4879243;29;20637;-71
2023/01/27 05:04:25;;;;;;;10.52;6.15;;;4.80;99.90;;;;;;4863946;29;20187;-70
2023/01/27 05:06:51;;;;;;;10.60;7.00;;;4.80;99.90;;;;;;4879833;29;20261;-70
2023/01/27 05:09:17;;;;;;;11.10;6.40;;;4.80;99.90;;;;;;4888721;29;20672;-70
2023/01/27 05:11:46;;;;;;;13.02;7.63;;;4.90;99.90;;;;;;4845964;29;20456;-70
2023/01/27 05:14:13;;;;;;;10.85;7.05;;;4.80;99.90;;;;;;4865170;29;20219;-69
2023/01/27 05:16:41;;;;;;;10.75;6.75;;;4.80;99.90;;;;;;4875563;29;20211;-69
2023/01/27 05:19:12;;;;;;;12.20;7.70;;;4.80;99.90;;;;;;4869330;29;20274;-69
2023/01/27 05:21:39;;;;;;;10.68;6.82;;;4.80;99.90;;;;;;4869917;29;20270;-69
2023/01/27 05:24:09;;;;;;;9.88;6.70;;;4.80;99.90;;;;;;4863118;29;20176;-69
2023/01/27 05:26:38;;;;;;;11.82;7.60;;;4.80;99.90;;;;;;4846885;29;20175;-70
2023/01/27 05:29:07;;;;;;;11.18;7.05;;;4.80;99.90;;;;;;4889980;29;20321;-69
2023/01/27 05:31:33;;;;;;;11.00;6.40;;;4.90;99.90;;;;;;4868960;29;20607;-71
2023/01/27 05:34:01;;;;;;;10.93;7.20;;;4.80;99.90;;;;;;4875594;29;20207;-71
2023/01/27 05:36:29;;;;;;;11.70;6.63;;;4.80;99.90;;;;;;4865967;29;20491;-71
2023/01/27 05:38:57;;;;;;;10.77;7.07;;;4.80;99.90;;;;;;4876873;29;20191;-71
2023/01/27 05:41:28;;;;;;;13.10;8.07;;;4.80;99.90;;;;;;4875965;29;20685;-71
2023/01/27 05:43:55;;;;;;;9.48;6.75;;;4.80;99.90;;;;;;4845653;29;20194;-71
2023/01/27 05:46:23;;;;;;;11.88;7.28;;;4.80;99.90;;;;;;4860691;29;20203;-71
2023/01/27 05:48:53;;;;;;;10.35;7.25;;;4.80;99.90;;;;;;4846255;29;20279;-71
2023/01/27 05:51:20;;;;;;;8.85;6.32;;;4.80;99.90;;;;;;4860761;29;20657;-70
2023/01/27 05:53:51;;;;;;;11.30;6.93;;;4.80;99.90;;;;;;4857156;29;20209;-71
2023/01/27 05:56:18;;;;;;;9.65;6.35;;;4.90;99.90;;;;;;4894738;29;20210;-71
2023/01/27 05:58:45;;;;;;;14.27;7.40;;;4.80;99.90;;;;;;4862417;29;20561;-71
2023/01/27 06:01:21;;;;;;;13.57;7.05;;;4.80;99.90;;;;;;4867519;29;20240;-74
2023/01/27 06:03:49;;;;;;;11.07;7.25;;;4.80;99.90;;;;;;4879084;29;20223;-71
2023/01/27 06:06:21;;;;;;;11.30;7.68;;;4.80;99.90;;;;;;4860310;29;20570;-71
2023/01/27 06:08:48;;;;;;;12.52;7.30;;;4.90;99.90;;;;;;4845000;29;20611;-71
2023/01/27 06:11:18;;;;;;;10.70;6.65;;;4.90;99.90;;;;;;4874027;29;20637;-71
2023/01/27 06:13:49;;;;;;;11.27;7.50;;;4.80;99.90;;;;;;4893347;29;20253;-71
2023/01/27 06:16:19;;;;;;;12.02;7.57;;;4.80;99.90;;;;;;4879966;29;20205;-71
2023/01/27 06:18:46;;;;;;;11.20;7.85;;;4.80;99.90;;;;;;4893182;29;20330;-71
2023/01/27 06:21:16;;;;;;;11.45;7.55;;;4.90;99.90;;;;;;4879633;29;20177;-71
2023/01/27 06:23:44;;;;;;;12.93;8.13;;;4.80;99.90;;;;;;4878201;29;20664;-71
2023/01/27 06:26:18;;;;;;;12.27;7.40;;;4.80;99.90;;;;;;4860189;29;20577;-72
2023/01/27 06:28:44;;;;;;;9.52;6.57;;;4.80;99.90;;;;;;4861184;29;20290;-74
2023/01/27 06:31:16;;;;;;;9.70;6.60;;;4.80;99.90;;;;;;4877917;29;20197;-72
2023/01/27 06:33:44;;;;;;;9.82;7.80;;;4.80;99.90;;;;;;4875547;29;20217;-72
2023/01/27 06:36:15;;;;;;;12.65;7.97;;;4.80;99.90;;;;;;4865719;29;20642;-77
2023/01/27 06:38:42;;;;;;;12.40;7.50;;;4.80;99.90;;;;;;4878491;29;20641;-71
2023/01/27 06:41:11;;;;;;;10.60;7.70;;;4.80;99.90;;;;;;4879550;29;20281;-72
2023/01/27 06:43:44;;;;;;;10.88;6.65;;;4.90;99.90;;;;;;4863023;29;20183;-73
2023/01/27 06:46:13;;;;;;;11.10;7.63;;;4.80;99.90;;;;;;4866278;29;20203;-74
2023/01/27 06:48:39;;;;;;;9.77;7.10;;;4.90;99.90;;;;;;4869765;29;20684;-73
2023/01/27 06:51:08;;;;;;;12.10;7.77;;;4.90;99.90;;;;;;4875628;29;20192;-75
2023/01/27 06:53:36;;;;;;;10.27;8.05;;;4.90;99.90;;;;;;4877052;29;20215;-73
2023/01/27 06:56:05;;;;;;;10.15;6.82;;;4.90;99.90;;;;;;4877924;29;20735;-74
2023/01/27 06:58:31;;;;;;;10.27;7.55;;;4.90;99.90;;;;;;4880766;29;20191;-74
2023/01/27 07:01:00;;;;;;;11.50;7.35;;;4.90;99.90;;;;;;4873404;29;20193;-72
2023/01/27 07:03:28;;;;;;;9.60;6.60;;;4.90;99.90;;;;;;4857877;29;20206;-72
2023/01/27 07:05:54;;;;;;;10.60;7.50;;;4.90;99.90;;;;;;4881767;29;21025;-71
2023/01/27 07:08:23;;;;;;;10.50;6.35;;;4.90;99.90;;;;;;4865035;29;20589;-72
2023/01/27 07:10:49;;;;;;;10.63;7.03;;;4.90;99.90;;;;;;4844789;29;20206;-72
2023/01/27 07:13:17;;;;;;;8.77;6.97;;;4.90;99.90;;;;;;4871844;29;20191;-72
2023/01/27 07:15:43;;;;;;;8.57;6.80;;;4.90;99.90;;;;;;4873192;29;20199;-72
2023/01/27 07:18:13;;;;;;;9.05;6.22;;;4.90;99.90;;;;;;4868094;29;20207;-72
2023/01/27 07:20:39;;;;;;;8.70;6.50;;;4.90;99.90;;;;;;4873676;29;20632;-72
2023/01/27 07:23:05;;;;;;;9.48;7.05;;;4.90;99.90;;;;;;4891318;29;20175;-72
2023/01/27 07:25:36;;;;;;;11.15;6.75;;;4.90;99.90;;;;;;4860844;29;20224;-72
2023/01/27 07:28:02;;;;;;;9.20;6.80;;;5.00;99.90;;;;;;4876380;29;20606;-72
2023/01/27 07:30:32;;;;;;;9.55;6.60;;;4.90;99.90;;;;;;4878469;29;20293;-72
2023/01/27 07:33:06;;;;;;;10.50;6.60;;;4.90;99.90;;;;;;4882851;29;20250;-72
2023/01/27 07:35:33;;;;;;;9.60;6.57;;;4.90;99.90;;;;;;4872493;29;20225;-72
2023/01/27 07:38:04;;;;;;;10.25;7.05;;;4.90;99.90;;;;;;4877323;29;20177;-72
2023/01/27 07:40:30;;;;;;;10.15;6.85;;;4.90;99.90;;;;;;4882749;29;20590;-72
2023/01/27 07:43:00;;;;;;;9.25;6.30;;;4.90;99.90;;;;;;4892120;29;20565;-72
2023/01/27 07:45:28;;;;;;;8.50;5.88;;;5.00;99.90;;;;;;4876823;29;20198;-72
2023/01/27 07:48:00;;;;;;;10.30;7.20;;;5.00;99.90;;;;;;4866543;29;20229;-73
2023/01/27 07:50:28;;;;;;;10.02;7.07;;;5.00;99.90;;;;;;4869920;29;20182;-72
2023/01/27 07:52:57;;;;;;;7.45;5.93;;;4.90;99.90;;;;;;4875060;29;20202;-73
2023/01/27 07:55:27;;;;;;;9.70;6.20;;;4.90;99.90;;;;;;4884996;29;20214;-72
2023/01/27 07:57:56;;;;;;;7.88;6.32;;;4.90;99.90;;;;;;4874910;29;20262;-72
2023/01/27 08:00:25;;;;;;;8.00;5.60;;;5.00;99.90;;;;;;4873732;29;20679;-72
2023/01/27 08:02:52;;;;;;;7.78;5.90;;;4.90;99.90;;;;;;4876177;29;20196;-73
2023/01/27 08:05:19;;;;;;;7.60;6.30;;;5.00;99.90;;;;;;4894860;29;20216;-72
2023/01/27 08:07:46;;;;;;;8.05;6.05;;;5.00;99.90;;;;;;4879614;29;20228;-73
2023/01/27 08:10:12;;;;;;;8.27;6.10;;;5.00;99.90;;;;;;4872147;29;20262;-74
2023/01/27 08:12:38;;;;;;;7.95;5.55;;;5.00;99.90;;;;;;4843227;29;20223;-74
2023/01/27 08:15:07;;;;;;;7.07;5.90;;;5.00;99.90;;;;;;4878309;29;20218;-73
2023/01/27 08:17:33;;;;;;;6.05;5.30;;;5.00;99.90;;;;;;4876930;29;20403;-72
2023/01/27 08:19:59;;;;;;;6.90;5.40;;;5.00;99.90;;;;;;4872509;29;20335;-72
2023/01/27 08:22:26;;;;;;;7.70;5.93;;;5.00;99.90;;;;;;4861078;29;20450;-73
2023/01/27 08:24:52;;;;;;;5.80;4.82;;;5.00;99.90;;;;;;4887764;29;20219;-72
2023/01/27 08:27:22;;;;;;;7.07;5.32;;;5.00;99.90;;;;;;4858817;29;20197;-75
2023/01/27 08:29:48;;;;;;;5.90;5.00;;;5.00;99.90;;;;;;4859063;29;20167;-75
2023/01/27 08:32:16;;;;;;;6.30;5.25;;;5.00;99.90;;;;;;4871877;29;20206;-74
2023/01/27 08:34:47;;;;;;;6.72;5.20;;;5.00;99.90;;;;;;4877936;29;20214;-76
2023/01/27 08:37:15;;;;;;;6.50;5.50;;;5.00;99.90;;;;;;4863368;29;20645;-75
2023/01/27 08:39:41;;;;;;;8.27;5.65;;;5.00;99.90;;;;;;4879663;29;20197;-75
2023/01/27 08:42:07;;;;;;;9.05;5.88;;;5.00;99.90;;;;;;4896479;29;20246;-76
2023/01/27 08:44:35;;;;;;;7.50;5.63;;;5.00;99.90;;;;;;4878338;29;20216;-75
2023/01/27 08:47:01;;;;;;;7.82;6.00;;;5.00;99.90;;;;;;4882431;29;20928;-75
2023/01/27 08:49:29;;;;;;;9.03;6.13;;;5.10;99.90;;;;;;4899603;29;20258;-75
2023/01/27 08:51:55;;;;;;;6.22;4.85;;;5.00;99.90;;;;;;4882763;29;20440;-76
2023/01/27 08:54:25;;;;;;;10.43;6.10;;;5.10;99.90;;;;;;4875746;29;20221;-75
2023/01/27 08:56:51;;;;;;;7.68;5.68;;;5.00;99.90;;;;;;4891615;29;20422;-74
2023/01/27 08:59:38;;;;;;;6.28;4.97;;;5.10;99.90;;;;;;4875941;29;20246;-74
2023/01/27 09:02:05;;;;;;;6.32;5.55;;;5.00;99.90;;;;;;4868178;29;20238;-76
2023/01/27 09:04:31;;;;;;;7.35;5.90;;;5.10;99.90;;;;;;4885101;29;20298;-76
2023/01/27 09:06:57;;;;;;;6.75;5.40;;;5.10;99.90;;;;;;4884974;29;20431;-75
2023/01/27 09:09:25;;;;;;;6.82;5.85;;;5.10;99.90;;;;;;4875651;29;20188;-75
2023/01/27 09:11:51;;;;;;;7.50;5.27;;;5.10;99.90;;;;;;4885050;29;20193;-75
2023/01/27 09:14:22;;;;;;;7.57;5.97;;;5.10;99.90;;;;;;4868753;29;20512;-75
2023/01/27 09:16:53;;;;;;;6.32;5.35;;;5.10;99.90;;;;;;4868069;29;20708;-75
2023/01/27 09:19:19;;;;;;;7.00;5.97;;;5.10;99.90;;;;;;4878648;29;20179;-75
2023/01/27 09:21:47;;;;;;;6.40;5.20;;;5.10;99.90;;;;;;4868953;29;20193;-75
2023/01/27 09:24:16;;;;;;;7.80;6.13;;;5.10;99.90;;;;;;4863082;29;20742;-75
2023/01/27 09:26:45;;;;;;;7.72;6.22;;;5.10;99.90;;;;;;4868069;29;20215;-75
2023/01/27 09:29:13;;;;;;;7.57;5.43;;;5.10;99.90;;;;;;4866057;29;20183;-75
2023/01/27 09:31:39;;;;;;;6.35;5.30;;;5.10;99.90;;;;;;4873749;29;20662;-75
2023/01/27 09:34:05;;;;;;;6.32;5.72;;;5.10;99.90;;;;;;4863568;29;20215;-75
2023/01/27 09:36:42;;;;;;;8.02;6.00;;;5.10;99.90;;;;;;4861377;29;20737;-75
2023/01/27 09:39:09;;;;;;;7.50;6.45;;;5.10;99.90;;;;;;4874848;29;20219;-75
2023/01/27 09:41:44;;;;;;;9.93;8.23;;;5.10;99.90;;;;;;4869956;29;20187;-75
2023/01/27 09:44:18;;;;;;;12.13;5.80;;;5.10;99.90;;;;;;4866145;29;20606;-75
2023/01/27 09:47:08;;;;;;;6.82;5.88;;;5.10;99.90;;;;;;4881476;29;20630;-75
2023/01/27 09:50:00;;;;;;;7.35;6.10;;;5.10;99.90;;;;;;4873226;29;20199;-75
2023/01/27 09:53:14;;;;;;;7.90;6.60;;;5.10;99.90;;;;;;4857733;29;20203;-75
2023/01/27 09:55:45;;;;;;;7.28;5.82;;;5.10;99.90;;;;;;4888748;29;20225;-75
2023/01/27 09:58:37;;;;;;;8.27;6.03;;;5.10;99.90;;;;;;4865972;29;20212;-74
2023/01/27 10:01:29;;;;;;;7.75;5.97;;;5.20;99.90;;;;;;4880710;29;20210;-75
2023/01/27 10:04:14;;;;;;;8.20;5.20;;;5.10;99.90;;;;;;4878157;29;20199;-76
2023/01/27 10:07:18;;;;;;;10.30;6.28;;;5.20;99.90;;;;;;4878634;29;20281;-76
2023/01/27 10:09:55;;;;;;;11.25;7.05;;;5.20;99.90;;;;;;4854289;29;20434;-76
2023/01/27 10:12:43;;;;;;;8.23;6.32;;;5.20;99.90;;;;;;4870703;29;20191;-76
2023/01/27 10:15:28;;;;;;;7.45;6.63;;;5.20;99.90;;;;;;4868369;29;20218;-76
2023/01/27 10:18:21;;;;;;;8.20;5.93;;;5.20;99.90;;;;;;4854376;29;20180;-76
2023/01/27 10:21:02;;;;;;;7.72;6.18;;;5.20;99.90;;;;;;4869269;29;20717;-77
2023/01/27 10:23:53;;;;;;;8.15;6.03;;;5.20;99.90;;;;;;4866299;29;20216;-75
2023/01/27 10:26:38;;;;;;;7.88;5.95;;;5.20;99.90;;;;;;4866674;29;20211;-75
2023/01/27 10:29:17;;;;;;;8.35;6.50;;;5.20;99.90;;;;;;4866365;29;20186;-76
2023/01/27 10:32:07;;;;;;;9.60;7.20;;;5.20;99.90;;;;;;4847013;29;20670;-76
2023/01/27 10:34:40;;;;;;;8.82;6.80;;;5.20;99.90;;;;;;4876569;29;20575;-76
2023/01/27 10:37:35;;;;;;;7.60;6.40;;;5.20;99.90;;;;;;4864145;29;20171;-74
2023/01/27 10:40:26;;;;;;;8.63;6.47;;;5.20;99.90;;;;;;4868815;29;20189;-76
2023/01/27 10:42:57;;;;;;;7.28;5.90;;;5.20;99.90;;;;;;4845372;29;20273;-76
2023/01/27 10:45:53;;;;;;;7.30;6.13;;;5.20;99.90;;;;;;4854763;29;20760;-76
2023/01/27 10:48:44;;;;;;;7.55;6.07;;;5.20;99.90;;;;;;4867597;29;20203;-77
2023/01/27 10:51:23;;;;;;;7.60;6.47;;;5.30;99.90;;;;;;4878913;29;20600;-77
2023/01/27 10:54:25;;;;;;;7.50;6.07;;;5.30;99.90;;;;;;4875068;29;20274;-76
2023/01/27 10:57:05;;;;;;;10.63;6.95;;;5.30;99.90;;;;;;4859892;29;20206;-76
2023/01/27 10:59:54;;;;;;;6.65;5.45;;;5.30;99.90;;;;;;4877351;29;20190;-75
2023/01/27 11:02:57;;;;;;;9.57;6.75;;;5.30;99.90;;;;;;4878242;29;20633;-77
2023/01/27 11:05:44;;;;;;;8.18;6.40;;;5.30;99.90;;;;;;4857676;29;20301;-76
2023/01/27 11:08:24;;;;;;;7.82;6.57;;;5.30;99.90;;;;;;4888907;29;20773;-76
2023/01/27 11:13:39;;;;;;;8.25;6.50;;;5.30;99.90;;;;;;4890549;29;20271;-76
2023/01/27 11:16:18;;;;;;;7.70;6.50;;;5.30;99.90;;;;;;4859505;29;20195;-77
2023/01/27 11:18:48;;;;;;;9.75;6.97;;;5.30;99.90;;;;;;4873914;29;20167;-76
2023/01/27 11:21:20;;;;;;;7.78;6.38;;;5.30;99.90;;;;;;4887409;29;20188;-78
2023/01/27 11:23:55;;;;;;;6.20;5.32;;;5.30;99.90;;;;;;4874352;29;20183;-77
2023/01/27 11:26:39;;;;;;;6.88;5.43;;;5.40;99.90;;;;;;4877487;29;20213;-77
2023/01/27 11:29:43;;;;;;;8.60;6.80;;;5.40;99.90;;;;;;4873218;29;20309;-75
2023/01/27 11:32:48;;;;;;;8.10;6.50;;;5.40;99.90;;;;;;4868888;29;20270;-73
2023/01/27 11:35:15;;;;;;;8.73;6.95;;;5.40;99.90;;;;;;4844966;29;20290;-74
2023/01/27 11:37:51;;;;;;;8.07;6.10;;;5.40;99.90;;;;;;4876269;29;20637;-74
2023/01/27 11:40:30;;;;;;;8.00;6.30;;;5.40;99.90;;;;;;4891858;29;20692;-74
2023/01/27 11:42:59;;;;;;;12.48;6.55;;;5.40;99.90;;;;;;4874169;29;20625;-75
2023/01/27 11:45:29;;;;;;;9.00;6.50;;;5.40;99.90;;;;;;4874873;29;20685;-76
2023/01/27 11:48:02;;;;;;;8.10;6.40;;;5.40;99.90;;;;;;4863426;29;20301;-76
2023/01/27 11:50:35;;;;;;;9.30;6.97;;;5.40;99.90;;;;;;4868663;29;20182;-75
2023/01/27 11:53:24;;;;;;;9.07;7.28;;;5.40;99.90;;;;;;4851657;29;20195;-75
2023/01/27 11:56:09;;;;;;;10.02;6.35;;;5.40;99.90;;;;;;4872483;29;20209;-75
2023/01/27 11:58:59;;;;;;;10.27;6.70;;;5.40;99.90;;;;;;4877166;29;20211;-76
2023/01/27 12:01:43;;;;;;;9.50;6.82;;;5.40;99.90;;;;;;4861563;29;20565;-75
2023/01/27 12:04:37;;;;;;;11.00;7.60;;;5.40;99.90;;;;;;4862378;29;20209;-75
2023/01/27 12:07:09;;;;;;;9.32;6.97;;;5.50;99.90;;;;;;4891870;29;20207;-76
2023/01/27 12:09:37;;;;;;;8.30;6.75;;;5.40;99.90;;;;;;4859203;29;20190;-76
2023/01/27 12:12:23;;;;;;;9.25;6.38;;;5.50;99.90;;;;;;4852564;29;1133460;-76
2023/01/27 12:14:56;;;;;;;9.93;7.00;;;5.50;99.90;;;;;;4888558;29;20223;-76
2023/01/27 12:17:39;;;;;;;10.70;7.47;;;5.50;99.90;;;;;;4873751;29;20315;-76
2023/01/27 12:20:20;;;;;;;9.30;6.95;;;5.50;99.90;;;;;;4878982;29;20191;-76
2023/01/27 12:22:51;;;;;;;8.75;6.82;;;5.50;99.90;;;;;;4868547;29;20182;-76
2023/01/27 12:25:31;;;;;;;9.38;7.28;;;5.50;99.90;;;;;;4891500;29;20221;-76
2023/01/27 12:28:06;;;;;;;7.80;6.25;;;5.50;99.90;;;;;;4894574;29;20241;-76
2023/01/27 12:30:36;;;;;;;8.55;6.38;;;5.50;99.90;;;;;;4880730;29;20234;-76
2023/01/27 12:33:20;;;;;;;9.50;6.88;;;5.50;99.90;;;;;;4905343;29;20222;-77
2023/01/27 12:35:48;;;;;;;8.82;6.75;;;5.50;99.90;;;;;;4870815;29;20211;-77
2023/01/27 12:38:24;;;;;;;8.43;6.50;;;5.50;99.90;;;;;;4872186;29;20722;-77
2023/01/27 12:41:05;;;;;;;8.80;6.57;;;5.50;99.90;;;;;;4858029;29;20194;-77
2023/01/27 12:43:49;;;;;;;9.40;6.50;;;5.50;99.90;;;;;;4866596;29;20227;-75
2023/01/27 12:46:26;;;;;;;9.13;6.63;;;5.50;99.90;;;;;;4896309;29;20204;-75
2023/01/27 12:49:02;;;;;;;8.82;6.13;;;5.60;99.90;;;;;;4874721;29;20464;-76
2023/01/27 12:51:40;;;;;;;7.05;5.85;;;5.60;99.90;;;;;;4872054;29;20230;-77
2023/01/27 12:54:30;;;;;;;6.47;5.40;;;5.60;99.90;;;;;;4877738;29;20296;-76
2023/01/27 12:57:14;;;;;;;7.82;5.85;;;5.60;99.90;;;;;;4847624;29;20183;-76
2023/01/27 12:59:50;;;;;;;6.13;5.53;;;5.60;99.90;;;;;;4877780;29;20251;-76
2023/01/27 13:02:33;;;;;;;6.68;5.60;;;5.60;99.90;;;;;;4926105;23;20169;-77
2023/01/27 13:05:04;;;;;;;7.07;5.32;;;5.60;99.90;;;;;;4885953;29;20246;-76
2023/01/27 13:07:46;;;;;;;7.07;5.75;;;5.60;99.90;;;;;;4879147;29;20559;-76
2023/01/27 13:10:20;;;;;;;7.13;6.25;;;5.60;99.90;;;;;;4879741;29;20218;-77
2023/01/27 13:12:55;;;;;;;7.85;5.65;;;5.60;99.90;;;;;;4880548;29;20595;-76
2023/01/27 13:15:27;;;;;;;6.20;5.13;;;5.60;99.90;;;;;;4894393;29;20666;-76
2023/01/27 13:18:10;;;;;;;6.22;4.85;;;5.60;99.90;;;;;;4879359;29;20185;-76
2023/01/27 13:20:47;;;;;;;4.85;4.15;;;5.60;99.90;;;;;;4879200;29;20250;-76
2023/01/27 13:23:29;;;;;;;14.13;4.90;;;5.60;99.90;;;;;;4879975;29;20663;-76
2023/01/27 13:26:16;;;;;;;6.03;4.72;;;5.60;99.90;;;;;;4878711;29;20210;-75
2023/01/27 13:29:05;;;;;;;5.80;4.82;;;5.60;99.90;;;;;;4895015;29;20206;-73
2023/01/27 13:31:40;;;;;;;6.60;5.35;;;5.60;99.90;;;;;;4910308;29;20223;-75
2023/01/27 13:34:44;;;;;;;6.05;5.15;;;5.60;99.90;;;;;;4878230;29;20320;-75
2023/01/27 13:37:22;;;;;;;7.60;5.68;;;5.70;99.90;;;;;;4863878;29;20178;-75
2023/01/27 13:40:01;;;;;;;5.38;4.22;;;5.60;99.90;;;;;;4896810;29;20291;-75
2023/01/27 13:42:41;;;;;;;6.50;4.40;;;5.70;99.90;;;;;;4894621;29;20181;-75
2023/01/27 13:45:15;;;;;;;5.80;4.68;;;5.70;99.90;;;;;;4879788;29;20215;-75
2023/01/27 13:47:44;;;;;;;6.55;4.50;;;5.70;99.90;;;;;;4880063;29;20186;-75
2023/01/27 13:50:42;;;;;;;5.38;4.80;;;5.70;99.90;;;;;;4909696;29;20724;-75
2023/01/27 13:53:15;;;;;;;8.73;4.03;;;5.70;99.90;;;;;;4894031;29;20210;-75
2023/01/27 13:56:11;;;;;;;5.60;4.50;;;5.70;99.90;;;;;;4879695;29;20269;-75